Mala Barna, Croatia

01:56 PM CET on Veljača 22, 2017 (GMT +0100)
Technical school Daruvar | | Change Station

Elev 630 ft 45.60 °N, 17.22 °E | Updated 3 seconds ago

Djelomična naoblaka
Djelomična naoblaka
56.5 °F
Feels Like 56.5 °F
S
5.6
Vjetar Varijabla smjera vjetra Vjetar from JJI
Gusts 7.4 mph

Danas
High -- | Low -- °F
--% Chance of Precip.
Jučer
High -- | Low -- °F
Precip. -- u
Pritisak 29.95 u
Vidljivost -9999.0 milja
Oblaci
Točka rose 34 °F
Vlažnost 42%
Kiša 0.00 u
Visina snijega Not available.
6:41 AM 5:27 PM
Mlađak, 17% visible
METAR LHPP 221215Z 26010KT CAVOK 13/05 Q1014
Pritisak 29.95 u
Vidljivost -9999.0 milja
Oblaci
Točka rose 34 °F
Vlažnost 42%
Kiša 0.00 u
Visina snijega Not available.
6:41 AM 5:27 PM
Mlađak, 17% visible
METAR LHPP 221215Z 26010KT CAVOK 13/05 Q1014

Get Your Daily Forecast Email!

Thanks for signing up!

Be on the lookout for a verification email in your inbox.

You'll start receiving the daily forecast at 8 AM.

×

10-Day Weather Forecast

×

Almanac

Astronomija

Feb. 22, 2017 Izlazak Zalazak
Trenutno vrijeme
Civilni sumrak
Nautički sumrak
Astronomski sumrak
Moon
Duljina trajanja vidljive svjetlosti
Duljina dana
Tomorrow will be .
, % of the Moon is Illuminated

Današnji ekstremi

Country Highs Country Lows

Community

WunderPhotos

Upload Photos

1,962,540 photos uploaded!

WunderBlog® & News

Nearby

Kvalitet zraka

  Kvalitet zraka AQ Index Zagadjenje
Not available.

Visina snijega

Station Depth Visina

Earthquake Activity

Grad Distance Mag. Time & Date
Minimum magnitude displayed is 2.5.

Coastal Water Temperatures

Mjesto Temperatura

Stations

Nearby Weather Stations

Lokacija stanice Temp. Subjektivni osjećaj Točka rose Vlažnost Vjetar Precip. Elev Ažurirano Tip